createdAt,value
2023-04-10T00:02:16.816Z,74.25
2023-04-10T00:07:21.870Z,78.50
2023-04-10T00:12:27.618Z,82.75
2023-04-10T00:17:32.623Z,88.25
2023-04-10T00:22:37.567Z,77.50
2023-04-10T00:27:42.584Z,75.50
2023-04-10T00:32:47.451Z,71.00
2023-04-10T00:37:52.965Z,74.00
2023-04-10T00:42:58.206Z,70.25
2023-04-10T00:48:03.272Z,70.25
2023-04-10T00:53:07.997Z,70.75
2023-04-10T00:58:16.170Z,72.25
2023-04-10T01:03:23.382Z,77.25
2023-04-10T01:08:41.320Z,69.25
2023-04-10T01:13:55.333Z,74.75
2023-04-10T01:19:04.552Z,69.75
2023-04-10T01:24:27.493Z,69.75
2023-04-10T01:29:34.554Z,74.75
2023-04-10T01:34:42.568Z,79.25
2023-04-10T01:39:49.525Z,77.25
2023-04-10T01:44:55.841Z,76.50
2023-04-10T01:50:01.261Z,81.75
2023-04-10T01:55:07.967Z,86.75
2023-04-10T02:00:20.518Z,94.75
2023-04-10T02:05:26.974Z,97.75
2023-04-10T02:10:47.267Z,96.50
2023-04-10T02:15:52.545Z,105.50
2023-04-10T02:20:57.354Z,105.75
2023-04-10T02:26:08.642Z,106.50
2023-04-10T02:31:13.054Z,106.25
2023-04-10T02:36:17.337Z,109.33
2023-04-10T02:41:22.170Z,106.00
2023-04-10T02:46:27.754Z,93.00
2023-04-10T02:51:32.437Z,89.25
2023-04-10T02:56:37.059Z,100.25
2023-04-10T03:01:42.008Z,87.25
2023-04-10T03:06:46.821Z,91.25
2023-04-10T03:11:51.161Z,93.75
2023-04-10T03:16:55.899Z,86.50
2023-04-10T03:22:00.319Z,95.25
2023-04-10T03:27:05.874Z,99.50
2023-04-10T03:32:11.110Z,100.50
2023-04-10T03:37:15.557Z,96.50
2023-04-10T03:42:20.033Z,88.75
2023-04-10T03:47:24.808Z,92.75
2023-04-10T03:52:30.160Z,87.25
2023-04-10T03:57:34.714Z,88.75
2023-04-10T04:02:42.265Z,82.00
2023-04-10T04:07:48.790Z,78.25
2023-04-10T04:13:09.585Z,88.25
2023-04-10T04:18:34.513Z,77.75
2023-04-10T04:23:57.184Z,71.75
2023-04-10T04:29:08.645Z,77.25
2023-04-10T04:34:25.138Z,71.25
2023-04-10T04:39:47.525Z,70.25
2023-04-10T04:45:17.898Z,73.00
2023-04-10T04:50:58.743Z,70.00
2023-04-10T04:56:25.299Z,68.75
2023-04-10T05:02:01.105Z,68.00
2023-04-10T05:07:31.570Z,66.00
2023-04-10T05:12:50.950Z,61.00
2023-04-10T05:18:10.648Z,60.00
2023-04-10T05:23:33.292Z,62.00
2023-04-10T05:29:12.269Z,58.50
2023-04-10T05:34:34.006Z,60.00
2023-04-10T05:39:46.863Z,51.25
2023-04-10T05:45:11.349Z,54.75
2023-04-10T05:50:30.364Z,55.75
2023-04-10T05:55:52.962Z,53.00
2023-04-10T06:01:35.779Z,52.50
2023-04-10T06:06:41.184Z,54.00
2023-04-10T06:11:47.713Z,51.50
2023-04-10T06:16:55.538Z,49.00
2023-04-10T06:22:00.738Z,46.50
2023-04-10T06:27:07.093Z,47.75
2023-04-10T06:32:12.708Z,48.75
2023-04-10T06:37:17.699Z,47.00
2023-04-10T06:42:23.362Z,46.50
2023-04-10T06:47:41.853Z,47.25
2023-04-10T06:52:54.515Z,47.25
2023-04-10T06:57:58.636Z,42.75
2023-04-10T07:03:06.048Z,46.00
2023-04-10T07:08:11.382Z,46.50
2023-04-10T07:13:15.679Z,45.00
2023-04-10T07:18:19.912Z,44.00
2023-04-10T07:23:24.337Z,45.00
2023-04-10T07:28:28.784Z,44.50
2023-04-10T07:33:33.223Z,43.00
2023-04-10T07:38:37.851Z,45.00
2023-04-10T07:43:43.053Z,40.75
2023-04-10T07:48:49.927Z,42.00
2023-04-10T07:53:54.912Z,43.00
2023-04-10T07:59:03.497Z,38.25
2023-04-10T08:04:08.206Z,40.75
2023-04-10T08:09:12.982Z,38.25
2023-04-10T08:14:18.758Z,38.50
2023-04-10T08:19:23.620Z,39.00
2023-04-10T08:24:29.804Z,41.00
2023-04-10T08:29:34.681Z,40.25
2023-04-10T08:34:39.505Z,36.25
2023-04-10T08:39:44.578Z,38.75
2023-04-10T08:44:50.776Z,39.50
2023-04-10T08:49:59.657Z,39.75
2023-04-10T08:55:07.882Z,36.50
2023-04-10T09:00:22.463Z,35.00
2023-04-10T09:05:29.782Z,35.75
2023-04-10T09:10:34.858Z,35.00
2023-04-10T09:16:01.893Z,35.00
2023-04-10T09:21:10.153Z,37.25
2023-04-10T09:26:34.897Z,39.25
2023-04-10T09:31:40.494Z,35.50
2023-04-10T09:36:46.944Z,34.25
2023-04-10T09:41:56.576Z,35.25
2023-04-10T09:47:18.379Z,35.00
2023-04-10T09:52:24.685Z,31.00
2023-04-10T09:57:30.929Z,30.00
2023-04-10T10:02:43.658Z,34.75
2023-04-10T10:07:48.515Z,34.25
2023-04-10T10:13:01.399Z,32.75
2023-04-10T10:18:23.111Z,34.00
2023-04-10T10:23:28.753Z,32.00
2023-04-10T10:28:35.678Z,32.25
2023-04-10T10:33:41.128Z,31.00
2023-04-10T10:38:50.105Z,31.75
2023-04-10T10:44:04.051Z,34.75
2023-04-10T10:49:09.673Z,30.75
2023-04-10T10:54:30.103Z,29.00
2023-04-10T10:59:54.670Z,31.25
2023-04-10T11:04:59.799Z,31.75
2023-04-10T11:10:04.522Z,31.00
2023-04-10T11:15:10.454Z,29.25
2023-04-10T11:20:15.487Z,27.25
2023-04-10T11:25:20.189Z,29.25
2023-04-10T11:30:28.850Z,29.00
2023-04-10T11:35:34.343Z,31.50
2023-04-10T11:40:54.665Z,31.25
2023-04-10T11:46:03.762Z,32.25
2023-04-10T11:51:10.078Z,31.00
2023-04-10T11:56:18.969Z,29.00
2023-04-10T12:01:24.580Z,25.75
2023-04-10T12:06:29.978Z,25.25
2023-04-10T12:11:34.779Z,28.50
2023-04-10T12:16:40.465Z,27.25
2023-04-10T12:21:48.865Z,27.50
2023-04-10T12:26:54.078Z,27.00
2023-04-10T12:31:59.067Z,25.75
2023-04-10T12:37:05.404Z,26.00
2023-04-10T12:42:16.958Z,28.75
2023-04-10T12:47:22.019Z,24.75
2023-04-10T12:52:26.575Z,30.75
2023-04-10T12:57:33.349Z,28.50
2023-04-10T13:02:42.950Z,28.25
2023-04-10T13:07:47.748Z,30.00
2023-04-10T13:12:52.170Z,23.50
2023-04-10T13:17:56.553Z,26.00
2023-04-10T13:23:01.047Z,30.00
2023-04-10T13:28:11.756Z,26.75
2023-04-10T13:33:17.163Z,22.00
2023-04-10T13:38:21.727Z,29.00
2023-04-10T13:43:27.860Z,30.00
2023-04-10T13:48:54.522Z,29.50
2023-04-10T13:53:58.035Z,30.25
2023-04-10T13:59:05.224Z,26.50
2023-04-10T14:04:09.880Z,26.00
2023-04-10T14:09:14.687Z,24.75
2023-04-10T14:14:19.259Z,22.25
2023-04-10T14:19:23.950Z,24.50
2023-04-10T14:24:28.755Z,24.75
2023-04-10T14:29:38.859Z,26.00
2023-04-10T14:34:47.607Z,24.25
2023-04-10T14:39:52.562Z,22.75
2023-04-10T14:44:57.328Z,27.50
2023-04-10T14:50:02.191Z,22.75
2023-04-10T14:55:08.915Z,21.00
2023-04-10T15:00:14.612Z,29.75
2023-04-10T15:05:19.269Z,24.00
2023-04-10T15:10:25.095Z,23.75
2023-04-10T15:15:30.936Z,26.25
2023-04-10T15:20:35.556Z,21.00
2023-04-10T15:25:40.190Z,20.50
2023-04-10T15:30:48.106Z,19.00
2023-04-10T15:35:52.683Z,24.75
2023-04-10T15:40:57.526Z,24.25
2023-04-10T15:46:04.156Z,25.25
2023-04-10T15:51:09.288Z,23.50
2023-04-10T15:56:13.892Z,21.75
2023-04-10T16:01:18.831Z,25.75
2023-04-10T16:06:27.308Z,21.25
2023-04-10T16:11:32.254Z,24.00
2023-04-10T16:16:36.658Z,21.00
2023-04-10T16:21:41.233Z,23.00
2023-04-10T16:26:45.640Z,26.75
2023-04-10T16:31:50.100Z,18.50
2023-04-10T16:36:54.578Z,18.00
2023-04-10T16:41:59.455Z,19.50
2023-04-10T16:47:03.813Z,14.25
2023-04-10T16:52:08.388Z,20.50
2023-04-10T16:57:12.963Z,18.75
2023-04-10T17:02:17.366Z,20.75
2023-04-10T17:07:21.898Z,21.75
2023-04-10T17:12:27.572Z,16.75
2023-04-10T17:17:32.245Z,24.50
2023-04-10T17:22:37.313Z,18.75
2023-04-10T17:27:41.811Z,23.00
2023-04-10T17:32:46.446Z,19.25
2023-04-10T17:37:51.509Z,18.75
2023-04-10T17:42:55.740Z,22.25
2023-04-10T17:48:00.325Z,24.00
2023-04-10T17:53:04.888Z,18.25
2023-04-10T17:58:09.136Z,16.75
2023-04-10T18:03:13.655Z,22.00
2023-04-10T18:08:17.886Z,14.25
2023-04-10T18:13:22.457Z,21.00
2023-04-10T18:18:26.745Z,20.50
2023-04-10T18:23:32.126Z,18.75
2023-04-10T18:28:37.682Z,16.50
2023-04-10T18:33:43.290Z,16.00
2023-04-10T18:38:49.254Z,17.75
2023-04-10T18:44:04.312Z,16.50
2023-04-10T18:49:10.284Z,18.00
2023-04-10T18:54:15.155Z,14.50
2023-04-10T18:59:20.134Z,20.00
2023-04-10T19:04:25.361Z,14.50
2023-04-10T19:09:30.453Z,17.50
2023-04-10T19:14:37.453Z,18.50
2023-04-10T19:19:42.130Z,19.50
2023-04-10T19:24:48.008Z,13.75
2023-04-10T19:29:52.793Z,13.75
2023-04-10T19:34:57.845Z,14.75
2023-04-10T19:40:02.672Z,16.25
2023-04-10T19:45:07.467Z,19.75
2023-04-10T19:50:12.287Z,16.50
2023-04-10T19:55:19.155Z,20.75
2023-04-10T20:00:24.204Z,17.00
2023-04-10T20:05:29.229Z,16.75
2023-04-10T20:10:34.107Z,16.00
2023-04-10T20:15:38.981Z,20.00
2023-04-10T20:20:44.320Z,14.00
2023-04-10T20:25:49.388Z,14.00
2023-04-10T20:30:54.419Z,17.00
2023-04-10T20:35:59.221Z,14.75
2023-04-10T20:41:04.630Z,14.50
2023-04-10T20:46:12.372Z,12.50
2023-04-10T20:51:16.609Z,17.00
2023-04-10T20:56:22.646Z,13.00
2023-04-10T21:01:27.540Z,13.00
2023-04-10T21:06:34.444Z,14.50
2023-04-10T21:11:39.607Z,13.00
2023-04-10T21:16:45.067Z,12.00
2023-04-10T21:21:49.801Z,13.75
2023-04-10T21:26:55.494Z,14.00
2023-04-10T21:32:00.597Z,17.00
2023-04-10T21:37:05.433Z,15.25
2023-04-10T21:42:10.299Z,15.00
2023-04-10T21:47:15.255Z,13.50
2023-04-10T21:52:19.901Z,16.50
2023-04-10T21:57:24.849Z,14.25
2023-04-10T22:02:29.846Z,17.50
2023-04-10T22:07:34.805Z,13.25
2023-04-10T22:12:39.852Z,13.25
2023-04-10T22:17:44.947Z,18.75
2023-04-10T22:22:50.296Z,19.00
2023-04-10T22:27:55.177Z,17.00
2023-04-10T22:32:59.963Z,16.00
2023-04-10T22:38:09.926Z,14.50
2023-04-10T22:43:14.956Z,14.50
2023-04-10T22:48:20.658Z,14.75
2023-04-10T22:53:25.564Z,12.75
2023-04-10T22:58:30.552Z,13.25
2023-04-10T23:03:35.830Z,17.75
2023-04-10T23:08:40.620Z,12.25
2023-04-10T23:13:45.440Z,16.00
2023-04-10T23:18:51.315Z,13.25
2023-04-10T23:23:56.149Z,15.00
2023-04-10T23:29:01.168Z,15.00
2023-04-10T23:34:05.846Z,15.00
2023-04-10T23:39:10.548Z,22.00
2023-04-10T23:44:15.465Z,16.50
2023-04-10T23:49:20.572Z,16.75
2023-04-10T23:54:25.362Z,22.25
2023-04-10T23:59:30.308Z,13.75
